sensor_id;sensor_type;location;lat;lon;timestamp;P1;durP1;ratioP1;P2;durP2;ratioP2
11490;SDS011;5802;52.832;4.758;2024-03-08T00:01:46;5.18;;;3.80;;
11490;SDS011;5802;52.832;4.758;2024-03-08T00:04:12;4.72;;;3.47;;
11490;SDS011;5802;52.832;4.758;2024-03-08T00:06:40;4.38;;;3.67;;
11490;SDS011;5802;52.832;4.758;2024-03-08T00:09:07;4.70;;;3.90;;
11490;SDS011;5802;52.832;4.758;2024-03-08T00:11:34;4.53;;;3.75;;
11490;SDS011;5802;52.832;4.758;2024-03-08T00:14:00;4.40;;;3.33;;
11490;SDS011;5802;52.832;4.758;2024-03-08T00:16:31;4.28;;;3.50;;
11490;SDS011;5802;52.832;4.758;2024-03-08T00:19:00;3.95;;;3.53;;
11490;SDS011;5802;52.832;4.758;2024-03-08T00:21:27;5.40;;;3.75;;
11490;SDS011;5802;52.832;4.758;2024-03-08T00:23:54;4.38;;;3.95;;
11490;SDS011;5802;52.832;4.758;2024-03-08T00:26:21;4.88;;;3.90;;
11490;SDS011;5802;52.832;4.758;2024-03-08T00:28:48;4.40;;;3.60;;
11490;SDS011;5802;52.832;4.758;2024-03-08T00:31:15;4.50;;;3.92;;
11490;SDS011;5802;52.832;4.758;2024-03-08T00:33:42;4.78;;;3.70;;
11490;SDS011;5802;52.832;4.758;2024-03-08T00:36:10;6.38;;;3.67;;
11490;SDS011;5802;52.832;4.758;2024-03-08T00:38:37;4.22;;;3.83;;
11490;SDS011;5802;52.832;4.758;2024-03-08T00:41:04;4.70;;;3.72;;
11490;SDS011;5802;52.832;4.758;2024-03-08T00:43:30;4.50;;;3.80;;
11490;SDS011;5802;52.832;4.758;2024-03-08T00:45:57;4.45;;;3.75;;
11490;SDS011;5802;52.832;4.758;2024-03-08T00:48:24;5.10;;;3.78;;
11490;SDS011;5802;52.832;4.758;2024-03-08T00:50:51;4.38;;;3.70;;
11490;SDS011;5802;52.832;4.758;2024-03-08T00:53:19;4.45;;;3.53;;
11490;SDS011;5802;52.832;4.758;2024-03-08T00:55:46;4.53;;;3.60;;
11490;SDS011;5802;52.832;4.758;2024-03-08T00:58:13;4.43;;;3.50;;
11490;SDS011;5802;52.832;4.758;2024-03-08T01:00:40;5.05;;;3.60;;
11490;SDS011;5802;52.832;4.758;2024-03-08T01:03:07;4.20;;;3.30;;
11490;SDS011;5802;52.832;4.758;2024-03-08T01:05:33;5.88;;;3.53;;
11490;SDS011;5802;52.832;4.758;2024-03-08T01:08:00;4.75;;;3.63;;
11490;SDS011;5802;52.832;4.758;2024-03-08T01:10:29;4.28;;;3.40;;
11490;SDS011;5802;52.832;4.758;2024-03-08T01:12:56;5.50;;;3.70;;
11490;SDS011;5802;52.832;4.758;2024-03-08T01:15:24;3.78;;;3.20;;
11490;SDS011;5802;52.832;4.758;2024-03-08T01:17:51;4.72;;;3.30;;
11490;SDS011;5802;52.832;4.758;2024-03-08T01:20:19;4.22;;;3.50;;
11490;SDS011;5802;52.832;4.758;2024-03-08T01:22:46;4.53;;;3.60;;
11490;SDS011;5802;52.832;4.758;2024-03-08T01:25:13;4.72;;;3.50;;
11490;SDS011;5802;52.832;4.758;2024-03-08T01:27:41;3.85;;;3.33;;
11490;SDS011;5802;52.832;4.758;2024-03-08T01:30:08;4.13;;;3.72;;
11490;SDS011;5802;52.832;4.758;2024-03-08T01:32:35;3.58;;;2.97;;
11490;SDS011;5802;52.832;4.758;2024-03-08T01:35:03;5.20;;;3.35;;
11490;SDS011;5802;52.832;4.758;2024-03-08T01:37:31;3.88;;;3.47;;
11490;SDS011;5802;52.832;4.758;2024-03-08T01:39:58;5.38;;;3.53;;
11490;SDS011;5802;52.832;4.758;2024-03-08T01:42:24;3.20;;;2.85;;
11490;SDS011;5802;52.832;4.758;2024-03-08T01:44:52;5.28;;;3.60;;
11490;SDS011;5802;52.832;4.758;2024-03-08T01:47:19;3.67;;;2.88;;
11490;SDS011;5802;52.832;4.758;2024-03-08T01:49:48;3.95;;;3.30;;
11490;SDS011;5802;52.832;4.758;2024-03-08T01:52:15;4.35;;;3.40;;
11490;SDS011;5802;52.832;4.758;2024-03-08T01:54:44;5.20;;;3.33;;
11490;SDS011;5802;52.832;4.758;2024-03-08T01:57:11;3.83;;;3.20;;
11490;SDS011;5802;52.832;4.758;2024-03-08T01:59:39;3.95;;;3.42;;
11490;SDS011;5802;52.832;4.758;2024-03-08T02:02:08;4.28;;;3.40;;
11490;SDS011;5802;52.832;4.758;2024-03-08T02:04:38;3.88;;;3.17;;
11490;SDS011;5802;52.832;4.758;2024-03-08T02:07:05;3.83;;;3.40;;
11490;SDS011;5802;52.832;4.758;2024-03-08T02:09:32;3.80;;;3.20;;
11490;SDS011;5802;52.832;4.758;2024-03-08T02:11:59;3.55;;;2.90;;
11490;SDS011;5802;52.832;4.758;2024-03-08T02:14:26;3.65;;;3.13;;
11490;SDS011;5802;52.832;4.758;2024-03-08T02:16:53;3.70;;;3.30;;
11490;SDS011;5802;52.832;4.758;2024-03-08T02:19:24;4.72;;;3.20;;
11490;SDS011;5802;52.832;4.758;2024-03-08T02:21:52;4.65;;;3.50;;
11490;SDS011;5802;52.832;4.758;2024-03-08T02:24:19;4.05;;;3.22;;
11490;SDS011;5802;52.832;4.758;2024-03-08T02:26:48;4.38;;;3.10;;
11490;SDS011;5802;52.832;4.758;2024-03-08T02:29:15;4.38;;;3.30;;
11490;SDS011;5802;52.832;4.758;2024-03-08T02:31:42;4.30;;;3.30;;
11490;SDS011;5802;52.832;4.758;2024-03-08T02:34:09;3.50;;;2.75;;
11490;SDS011;5802;52.832;4.758;2024-03-08T02:36:36;4.00;;;3.47;;
11490;SDS011;5802;52.832;4.758;2024-03-08T02:39:04;3.72;;;3.28;;
11490;SDS011;5802;52.832;4.758;2024-03-08T02:41:31;4.55;;;3.03;;
11490;SDS011;5802;52.832;4.758;2024-03-08T02:43:58;5.13;;;2.95;;
11490;SDS011;5802;52.832;4.758;2024-03-08T02:46:25;3.70;;;3.15;;
11490;SDS011;5802;52.832;4.758;2024-03-08T02:48:52;3.42;;;3.13;;
11490;SDS011;5802;52.832;4.758;2024-03-08T02:51:19;3.80;;;3.40;;
11490;SDS011;5802;52.832;4.758;2024-03-08T02:53:46;3.45;;;3.15;;
11490;SDS011;5802;52.832;4.758;2024-03-08T02:56:15;3.67;;;2.92;;
11490;SDS011;5802;52.832;4.758;2024-03-08T02:58:42;3.17;;;2.83;;
11490;SDS011;5802;52.832;4.758;2024-03-08T03:01:13;4.10;;;3.00;;
11490;SDS011;5802;52.832;4.758;2024-03-08T03:03:40;3.92;;;2.80;;
11490;SDS011;5802;52.832;4.758;2024-03-08T03:06:07;3.50;;;2.70;;
11490;SDS011;5802;52.832;4.758;2024-03-08T03:08:35;3.08;;;2.78;;
11490;SDS011;5802;52.832;4.758;2024-03-08T03:11:01;3.08;;;2.78;;
11490;SDS011;5802;52.832;4.758;2024-03-08T03:13:30;3.20;;;2.80;;
11490;SDS011;5802;52.832;4.758;2024-03-08T03:15:56;3.38;;;2.97;;
11490;SDS011;5802;52.832;4.758;2024-03-08T03:18:23;3.17;;;2.85;;
11490;SDS011;5802;52.832;4.758;2024-03-08T03:20:52;2.85;;;2.53;;
11490;SDS011;5802;52.832;4.758;2024-03-08T03:23:19;3.65;;;2.72;;
11490;SDS011;5802;52.832;4.758;2024-03-08T03:25:46;3.42;;;2.80;;
11490;SDS011;5802;52.832;4.758;2024-03-08T03:28:13;3.55;;;3.13;;
11490;SDS011;5802;52.832;4.758;2024-03-08T03:30:44;3.22;;;2.92;;
11490;SDS011;5802;52.832;4.758;2024-03-08T03:33:11;3.65;;;3.03;;
11490;SDS011;5802;52.832;4.758;2024-03-08T03:35:40;3.30;;;2.88;;
11490;SDS011;5802;52.832;4.758;2024-03-08T03:38:08;3.08;;;2.78;;
11490;SDS011;5802;52.832;4.758;2024-03-08T03:40:35;3.30;;;2.55;;
11490;SDS011;5802;52.832;4.758;2024-03-08T03:43:02;3.25;;;2.72;;
11490;SDS011;5802;52.832;4.758;2024-03-08T03:45:30;4.65;;;3.35;;
11490;SDS011;5802;52.832;4.758;2024-03-08T03:48:01;3.13;;;2.75;;
11490;SDS011;5802;52.832;4.758;2024-03-08T03:50:29;3.05;;;2.50;;
11490;SDS011;5802;52.832;4.758;2024-03-08T03:52:59;3.22;;;2.60;;
11490;SDS011;5802;52.832;4.758;2024-03-08T03:55:26;2.60;;;2.40;;
11490;SDS011;5802;52.832;4.758;2024-03-08T03:57:53;2.85;;;2.60;;
11490;SDS011;5802;52.832;4.758;2024-03-08T04:00:20;2.80;;;2.40;;
11490;SDS011;5802;52.832;4.758;2024-03-08T04:02:47;4.10;;;2.75;;
11490;SDS011;5802;52.832;4.758;2024-03-08T04:05:17;3.28;;;2.75;;
11490;SDS011;5802;52.832;4.758;2024-03-08T04:07:44;2.92;;;2.47;;
11490;SDS011;5802;52.832;4.758;2024-03-08T04:10:11;2.58;;;2.17;;
11490;SDS011;5802;52.832;4.758;2024-03-08T04:12:38;2.97;;;2.67;;
11490;SDS011;5802;52.832;4.758;2024-03-08T04:15:05;2.50;;;2.30;;
11490;SDS011;5802;52.832;4.758;2024-03-08T04:17:33;3.05;;;2.60;;
11490;SDS011;5802;52.832;4.758;2024-03-08T04:20:02;2.53;;;2.33;;
11490;SDS011;5802;52.832;4.758;2024-03-08T04:22:36;3.17;;;2.60;;
11490;SDS011;5802;52.832;4.758;2024-03-08T04:25:03;3.80;;;2.83;;
11490;SDS011;5802;52.832;4.758;2024-03-08T04:27:31;2.45;;;2.20;;
11490;SDS011;5802;52.832;4.758;2024-03-08T04:29:59;3.00;;;2.70;;
11490;SDS011;5802;52.832;4.758;2024-03-08T04:32:26;3.10;;;2.80;;
11490;SDS011;5802;52.832;4.758;2024-03-08T04:34:54;2.92;;;2.63;;
11490;SDS011;5802;52.832;4.758;2024-03-08T04:37:23;3.45;;;2.35;;
11490;SDS011;5802;52.832;4.758;2024-03-08T04:39:51;3.00;;;2.42;;
11490;SDS011;5802;52.832;4.758;2024-03-08T04:42:18;3.17;;;2.70;;
11490;SDS011;5802;52.832;4.758;2024-03-08T04:44:45;4.43;;;2.60;;
11490;SDS011;5802;52.832;4.758;2024-03-08T04:47:12;3.00;;;2.40;;
11490;SDS011;5802;52.832;4.758;2024-03-08T04:49:39;2.60;;;2.30;;
11490;SDS011;5802;52.832;4.758;2024-03-08T04:52:06;3.00;;;2.70;;
11490;SDS011;5802;52.832;4.758;2024-03-08T04:54:33;2.70;;;2.30;;
11490;SDS011;5802;52.832;4.758;2024-03-08T04:57:01;3.40;;;2.45;;
11490;SDS011;5802;52.832;4.758;2024-03-08T04:59:29;3.78;;;2.45;;
11490;SDS011;5802;52.832;4.758;2024-03-08T05:01:56;3.17;;;2.40;;
11490;SDS011;5802;52.832;4.758;2024-03-08T05:04:23;2.65;;;2.22;;
11490;SDS011;5802;52.832;4.758;2024-03-08T05:06:50;2.38;;;2.15;;
11490;SDS011;5802;52.832;4.758;2024-03-08T05:09:17;2.90;;;2.60;;
11490;SDS011;5802;52.832;4.758;2024-03-08T05:11:44;3.20;;;2.30;;
11490;SDS011;5802;52.832;4.758;2024-03-08T05:14:13;3.28;;;2.63;;
11490;SDS011;5802;52.832;4.758;2024-03-08T05:16:41;2.47;;;2.28;;
11490;SDS011;5802;52.832;4.758;2024-03-08T05:19:09;2.50;;;2.30;;
11490;SDS011;5802;52.832;4.758;2024-03-08T05:21:35;2.67;;;2.28;;
11490;SDS011;5802;52.832;4.758;2024-03-08T05:24:02;2.95;;;2.40;;
11490;SDS011;5802;52.832;4.758;2024-03-08T05:26:30;2.85;;;2.30;;
11490;SDS011;5802;52.832;4.758;2024-03-08T05:28:58;2.47;;;2.28;;
11490;SDS011;5802;52.832;4.758;2024-03-08T05:31:26;2.50;;;2.20;;
11490;SDS011;5802;52.832;4.758;2024-03-08T05:33:53;2.80;;;2.25;;
11490;SDS011;5802;52.832;4.758;2024-03-08T05:36:21;2.53;;;2.33;;
11490;SDS011;5802;52.832;4.758;2024-03-08T05:38:48;2.72;;;2.25;;
11490;SDS011;5802;52.832;4.758;2024-03-08T05:41:15;2.45;;;2.25;;
11490;SDS011;5802;52.832;4.758;2024-03-08T05:43:43;2.88;;;2.40;;
11490;SDS011;5802;52.832;4.758;2024-03-08T05:46:10;2.60;;;2.40;;
11490;SDS011;5802;52.832;4.758;2024-03-08T05:48:38;2.85;;;1.98;;
11490;SDS011;5802;52.832;4.758;2024-03-08T05:51:05;3.00;;;2.42;;
11490;SDS011;5802;52.832;4.758;2024-03-08T05:53:32;2.67;;;2.20;;
11490;SDS011;5802;52.832;4.758;2024-03-08T05:55:59;2.80;;;2.50;;
11490;SDS011;5802;52.832;4.758;2024-03-08T05:58:27;2.58;;;2.35;;
11490;SDS011;5802;52.832;4.758;2024-03-08T06:00:56;2.75;;;2.50;;
11490;SDS011;5802;52.832;4.758;2024-03-08T06:03:23;2.33;;;1.90;;
11490;SDS011;5802;52.832;4.758;2024-03-08T06:05:51;2.90;;;2.47;;
11490;SDS011;5802;52.832;4.758;2024-03-08T06:08:18;2.60;;;2.40;;
11490;SDS011;5802;52.832;4.758;2024-03-08T06:10:45;2.92;;;2.33;;
11490;SDS011;5802;52.832;4.758;2024-03-08T06:13:14;2.42;;;2.13;;
11490;SDS011;5802;52.832;4.758;2024-03-08T06:15:41;2.50;;;2.30;;
11490;SDS011;5802;52.832;4.758;2024-03-08T06:18:08;2.50;;;2.15;;
11490;SDS011;5802;52.832;4.758;2024-03-08T06:20:36;2.45;;;2.22;;
11490;SDS011;5802;52.832;4.758;2024-03-08T06:23:05;2.58;;;2.28;;
11490;SDS011;5802;52.832;4.758;2024-03-08T06:25:31;3.25;;;2.25;;
11490;SDS011;5802;52.832;4.758;2024-03-08T06:28:00;2.90;;;2.28;;
11490;SDS011;5802;52.832;4.758;2024-03-08T06:30:27;2.50;;;2.30;;
11490;SDS011;5802;52.832;4.758;2024-03-08T06:32:53;2.45;;;2.15;;
11490;SDS011;5802;52.832;4.758;2024-03-08T06:35:20;3.13;;;2.40;;
11490;SDS011;5802;52.832;4.758;2024-03-08T06:37:47;2.42;;;2.22;;
11490;SDS011;5802;52.832;4.758;2024-03-08T06:40:16;2.80;;;2.33;;
11490;SDS011;5802;52.832;4.758;2024-03-08T06:42:43;2.53;;;2.10;;
11490;SDS011;5802;52.832;4.758;2024-03-08T06:45:11;2.30;;;2.10;;
11490;SDS011;5802;52.832;4.758;2024-03-08T06:47:40;2.35;;;2.10;;
11490;SDS011;5802;52.832;4.758;2024-03-08T06:50:08;2.65;;;2.40;;
11490;SDS011;5802;52.832;4.758;2024-03-08T06:52:36;2.55;;;2.10;;
11490;SDS011;5802;52.832;4.758;2024-03-08T06:55:04;2.47;;;2.10;;
11490;SDS011;5802;52.832;4.758;2024-03-08T06:57:32;2.70;;;2.25;;
11490;SDS011;5802;52.832;4.758;2024-03-08T06:59:59;2.45;;;2.17;;
11490;SDS011;5802;52.832;4.758;2024-03-08T07:02:26;2.97;;;2.50;;
11490;SDS011;5802;52.832;4.758;2024-03-08T07:04:53;2.70;;;2.40;;
11490;SDS011;5802;52.832;4.758;2024-03-08T07:07:21;2.40;;;2.20;;
11490;SDS011;5802;52.832;4.758;2024-03-08T07:09:48;3.13;;;2.40;;
11490;SDS011;5802;52.832;4.758;2024-03-08T07:12:15;2.28;;;2.08;;
11490;SDS011;5802;52.832;4.758;2024-03-08T07:14:44;2.50;;;2.22;;
11490;SDS011;5802;52.832;4.758;2024-03-08T07:17:11;3.00;;;2.50;;
11490;SDS011;5802;52.832;4.758;2024-03-08T07:19:38;2.50;;;2.30;;
11490;SDS011;5802;52.832;4.758;2024-03-08T07:22:05;2.50;;;2.30;;
11490;SDS011;5802;52.832;4.758;2024-03-08T07:24:34;3.22;;;2.38;;
11490;SDS011;5802;52.832;4.758;2024-03-08T07:27:21;2.88;;;2.28;;
11490;SDS011;5802;52.832;4.758;2024-03-08T07:29:49;2.60;;;2.35;;
11490;SDS011;5802;52.832;4.758;2024-03-08T07:32:16;3.13;;;2.25;;
11490;SDS011;5802;52.832;4.758;2024-03-08T07:34:46;2.22;;;2.03;;
11490;SDS011;5802;52.832;4.758;2024-03-08T07:37:15;2.65;;;2.35;;
11490;SDS011;5802;52.832;4.758;2024-03-08T07:39:42;2.10;;;1.90;;
11490;SDS011;5802;52.832;4.758;2024-03-08T07:42:09;3.00;;;2.30;;
11490;SDS011;5802;52.832;4.758;2024-03-08T07:44:37;2.60;;;2.40;;
11490;SDS011;5802;52.832;4.758;2024-03-08T07:47:05;3.05;;;2.35;;
11490;SDS011;5802;52.832;4.758;2024-03-08T07:49:34;2.45;;;2.25;;
11490;SDS011;5802;52.832;4.758;2024-03-08T07:52:02;2.20;;;1.85;;
11490;SDS011;5802;52.832;4.758;2024-03-08T07:54:32;2.63;;;2.42;;
11490;SDS011;5802;52.832;4.758;2024-03-08T07:56:59;3.05;;;2.17;;
11490;SDS011;5802;52.832;4.758;2024-03-08T07:59:28;2.70;;;2.35;;
11490;SDS011;5802;52.832;4.758;2024-03-08T08:01:54;3.05;;;2.55;;
11490;SDS011;5802;52.832;4.758;2024-03-08T08:04:23;4.03;;;2.40;;
11490;SDS011;5802;52.832;4.758;2024-03-08T08:06:51;2.40;;;2.20;;
11490;SDS011;5802;52.832;4.758;2024-03-08T08:09:20;2.30;;;2.10;;
11490;SDS011;5802;52.832;4.758;2024-03-08T08:11:53;3.35;;;2.67;;
11490;SDS011;5802;52.832;4.758;2024-03-08T08:14:20;2.75;;;2.55;;
11490;SDS011;5802;52.832;4.758;2024-03-08T08:16:47;2.45;;;2.25;;
11490;SDS011;5802;52.832;4.758;2024-03-08T08:19:17;2.50;;;2.30;;
11490;SDS011;5802;52.832;4.758;2024-03-08T08:21:46;2.60;;;2.30;;
11490;SDS011;5802;52.832;4.758;2024-03-08T08:24:13;2.53;;;2.25;;
11490;SDS011;5802;52.832;4.758;2024-03-08T08:26:40;2.75;;;2.38;;
11490;SDS011;5802;52.832;4.758;2024-03-08T08:29:09;2.53;;;2.00;;
11490;SDS011;5802;52.832;4.758;2024-03-08T08:31:36;2.55;;;2.30;;
11490;SDS011;5802;52.832;4.758;2024-03-08T08:34:03;2.65;;;2.40;;
11490;SDS011;5802;52.832;4.758;2024-03-08T08:36:31;3.20;;;2.55;;
11490;SDS011;5802;52.832;4.758;2024-03-08T08:39:00;2.50;;;2.30;;
11490;SDS011;5802;52.832;4.758;2024-03-08T08:41:28;2.50;;;2.30;;
11490;SDS011;5802;52.832;4.758;2024-03-08T08:43:55;2.53;;;2.30;;
11490;SDS011;5802;52.832;4.758;2024-03-08T08:46:22;3.67;;;2.60;;
11490;SDS011;5802;52.832;4.758;2024-03-08T08:48:49;2.60;;;2.30;;
11490;SDS011;5802;52.832;4.758;2024-03-08T08:51:16;2.55;;;2.35;;
11490;SDS011;5802;52.832;4.758;2024-03-08T08:53:42;2.67;;;2.42;;
11490;SDS011;5802;52.832;4.758;2024-03-08T08:56:11;2.60;;;2.40;;
11490;SDS011;5802;52.832;4.758;2024-03-08T08:58:39;2.75;;;2.42;;
11490;SDS011;5802;52.832;4.758;2024-03-08T09:01:07;2.47;;;2.28;;
11490;SDS011;5802;52.832;4.758;2024-03-08T09:03:35;2.92;;;2.30;;
11490;SDS011;5802;52.832;4.758;2024-03-08T09:06:02;3.05;;;2.72;;
11490;SDS011;5802;52.832;4.758;2024-03-08T09:08:29;2.80;;;2.42;;
11490;SDS011;5802;52.832;4.758;2024-03-08T09:10:56;3.30;;;2.50;;
11490;SDS011;5802;52.832;4.758;2024-03-08T09:13:26;2.88;;;2.50;;
11490;SDS011;5802;52.832;4.758;2024-03-08T09:15:53;2.90;;;2.58;;
11490;SDS011;5802;52.832;4.758;2024-03-08T09:18:20;2.60;;;2.30;;
11490;SDS011;5802;52.832;4.758;2024-03-08T09:20:46;3.35;;;2.60;;
11490;SDS011;5802;52.832;4.758;2024-03-08T09:23:13;3.05;;;2.45;;
11490;SDS011;5802;52.832;4.758;2024-03-08T09:25:42;2.80;;;2.60;;
11490;SDS011;5802;52.832;4.758;2024-03-08T09:28:08;2.60;;;2.35;;
11490;SDS011;5802;52.832;4.758;2024-03-08T09:30:38;3.70;;;2.25;;
11490;SDS011;5802;52.832;4.758;2024-03-08T09:33:05;2.55;;;2.35;;
11490;SDS011;5802;52.832;4.758;2024-03-08T09:35:33;2.65;;;2.45;;
11490;SDS011;5802;52.832;4.758;2024-03-08T09:38:00;2.70;;;2.50;;
11490;SDS011;5802;52.832;4.758;2024-03-08T09:40:29;2.80;;;2.50;;
11490;SDS011;5802;52.832;4.758;2024-03-08T09:42:57;3.55;;;2.67;;
11490;SDS011;5802;52.832;4.758;2024-03-08T09:45:24;2.90;;;2.60;;
11490;SDS011;5802;52.832;4.758;2024-03-08T09:47:53;2.95;;;2.40;;
11490;SDS011;5802;52.832;4.758;2024-03-08T09:50:21;2.78;;;2.50;;
11490;SDS011;5802;52.832;4.758;2024-03-08T09:52:48;3.95;;;2.33;;
11490;SDS011;5802;52.832;4.758;2024-03-08T09:55:15;3.10;;;2.58;;
11490;SDS011;5802;52.832;4.758;2024-03-08T09:57:47;3.00;;;2.70;;
11490;SDS011;5802;52.832;4.758;2024-03-08T10:00:41;3.15;;;2.65;;
11490;SDS011;5802;52.832;4.758;2024-03-08T10:03:09;2.83;;;2.50;;
11490;SDS011;5802;52.832;4.758;2024-03-08T10:05:39;2.95;;;2.40;;
11490;SDS011;5802;52.832;4.758;2024-03-08T10:08:09;3.10;;;2.70;;
11490;SDS011;5802;52.832;4.758;2024-03-08T10:10:36;3.17;;;2.72;;
11490;SDS011;5802;52.832;4.758;2024-03-08T10:13:05;2.78;;;2.47;;
11490;SDS011;5802;52.832;4.758;2024-03-08T10:15:32;3.10;;;2.80;;
11490;SDS011;5802;52.832;4.758;2024-03-08T10:17:59;2.70;;;2.47;;
11490;SDS011;5802;52.832;4.758;2024-03-08T10:20:28;3.38;;;2.70;;
11490;SDS011;5802;52.832;4.758;2024-03-08T10:22:58;3.00;;;2.70;;
11490;SDS011;5802;52.832;4.758;2024-03-08T10:25:25;2.90;;;2.50;;
11490;SDS011;5802;52.832;4.758;2024-03-08T10:27:52;2.92;;;2.65;;
11490;SDS011;5802;52.832;4.758;2024-03-08T10:30:19;3.25;;;2.60;;
11490;SDS011;5802;52.832;4.758;2024-03-08T10:32:46;5.38;;;2.65;;
11490;SDS011;5802;52.832;4.758;2024-03-08T10:35:14;2.60;;;2.40;;
11490;SDS011;5802;52.832;4.758;2024-03-08T10:37:44;2.80;;;2.50;;
11490;SDS011;5802;52.832;4.758;2024-03-08T10:40:13;2.80;;;2.55;;
11490;SDS011;5802;52.832;4.758;2024-03-08T10:42:45;3.15;;;2.72;;
11490;SDS011;5802;52.832;4.758;2024-03-08T10:45:19;3.10;;;2.40;;
11490;SDS011;5802;52.832;4.758;2024-03-08T10:50:53;2.90;;;2.53;;
11490;SDS011;5802;52.832;4.758;2024-03-08T10:53:21;3.20;;;2.80;;
11490;SDS011;5802;52.832;4.758;2024-03-08T10:55:50;3.00;;;2.70;;
11490;SDS011;5802;52.832;4.758;2024-03-08T10:58:19;3.95;;;2.83;;
11490;SDS011;5802;52.832;4.758;2024-03-08T11:00:51;3.00;;;2.60;;
11490;SDS011;5802;52.832;4.758;2024-03-08T11:06:15;2.90;;;2.60;;
11490;SDS011;5802;52.832;4.758;2024-03-08T11:08:44;2.90;;;2.58;;
11490;SDS011;5802;52.832;4.758;2024-03-08T11:11:25;4.43;;;2.72;;
11490;SDS011;5802;52.832;4.758;2024-03-08T11:13:55;3.22;;;2.50;;
11490;SDS011;5802;52.832;4.758;2024-03-08T11:19:22;3.00;;;2.70;;
11490;SDS011;5802;52.832;4.758;2024-03-08T11:22:03;2.70;;;2.50;;
11490;SDS011;5802;52.832;4.758;2024-03-08T11:24:38;2.60;;;2.40;;
11490;SDS011;5802;52.832;4.758;2024-03-08T11:27:10;3.97;;;2.85;;
11490;SDS011;5802;52.832;4.758;2024-03-08T11:29:37;3.85;;;2.83;;
11490;SDS011;5802;52.832;4.758;2024-03-08T11:32:07;3.13;;;2.80;;
11490;SDS011;5802;52.832;4.758;2024-03-08T11:34:35;3.20;;;2.90;;
11490;SDS011;5802;52.832;4.758;2024-03-08T11:37:05;3.47;;;2.72;;
11490;SDS011;5802;52.832;4.758;2024-03-08T11:39:39;3.00;;;2.70;;
11490;SDS011;5802;52.832;4.758;2024-03-08T11:42:06;2.97;;;2.67;;
11490;SDS011;5802;52.832;4.758;2024-03-08T11:44:33;3.50;;;2.70;;
11490;SDS011;5802;52.832;4.758;2024-03-08T11:47:01;3.10;;;2.80;;
11490;SDS011;5802;52.832;4.758;2024-03-08T11:49:31;3.00;;;2.78;;
11490;SDS011;5802;52.832;4.758;2024-03-08T11:51:59;3.80;;;2.80;;
11490;SDS011;5802;52.832;4.758;2024-03-08T11:54:26;2.67;;;2.30;;
11490;SDS011;5802;52.832;4.758;2024-03-08T11:56:54;2.97;;;2.50;;
11490;SDS011;5802;52.832;4.758;2024-03-08T11:59:21;3.30;;;3.00;;
11490;SDS011;5802;52.832;4.758;2024-03-08T12:02:01;2.63;;;2.40;;
11490;SDS011;5802;52.832;4.758;2024-03-08T12:04:29;3.05;;;2.75;;
11490;SDS011;5802;52.832;4.758;2024-03-08T12:06:59;3.15;;;2.85;;
11490;SDS011;5802;52.832;4.758;2024-03-08T12:09:27;3.15;;;2.85;;
11490;SDS011;5802;52.832;4.758;2024-03-08T12:11:55;3.00;;;2.65;;
11490;SDS011;5802;52.832;4.758;2024-03-08T12:14:24;3.50;;;2.80;;
11490;SDS011;5802;52.832;4.758;2024-03-08T12:16:51;3.15;;;2.85;;
11490;SDS011;5802;52.832;4.758;2024-03-08T12:19:18;2.85;;;2.55;;
11490;SDS011;5802;52.832;4.758;2024-03-08T12:21:45;3.58;;;2.83;;
11490;SDS011;5802;52.832;4.758;2024-03-08T12:24:14;3.42;;;2.75;;
11490;SDS011;5802;52.832;4.758;2024-03-08T12:26:44;2.53;;;2.33;;
11490;SDS011;5802;52.832;4.758;2024-03-08T12:29:18;2.75;;;2.55;;
11490;SDS011;5802;52.832;4.758;2024-03-08T12:31:47;3.53;;;2.83;;
11490;SDS011;5802;52.832;4.758;2024-03-08T12:34:17;3.08;;;2.63;;
11490;SDS011;5802;52.832;4.758;2024-03-08T12:36:44;2.92;;;2.63;;
11490;SDS011;5802;52.832;4.758;2024-03-08T12:39:15;3.10;;;2.72;;
11490;SDS011;5802;52.832;4.758;2024-03-08T12:41:43;3.00;;;2.70;;
11490;SDS011;5802;52.832;4.758;2024-03-08T12:44:11;2.97;;;2.67;;
11490;SDS011;5802;52.832;4.758;2024-03-08T12:46:40;4.00;;;2.40;;
11490;SDS011;5802;52.832;4.758;2024-03-08T12:49:10;2.95;;;2.65;;
11490;SDS011;5802;52.832;4.758;2024-03-08T12:51:37;2.60;;;2.40;;
11490;SDS011;5802;52.832;4.758;2024-03-08T12:54:04;4.43;;;2.83;;
11490;SDS011;5802;52.832;4.758;2024-03-08T12:56:33;2.80;;;2.50;;
11490;SDS011;5802;52.832;4.758;2024-03-08T12:59:02;3.38;;;2.70;;
11490;SDS011;5802;52.832;4.758;2024-03-08T13:01:30;2.75;;;2.38;;
11490;SDS011;5802;52.832;4.758;2024-03-08T13:03:59;2.88;;;2.55;;
11490;SDS011;5802;52.832;4.758;2024-03-08T13:06:26;2.85;;;2.65;;
11490;SDS011;5802;52.832;4.758;2024-03-08T13:08:53;3.05;;;2.75;;
11490;SDS011;5802;52.832;4.758;2024-03-08T13:11:21;2.72;;;2.53;;
11490;SDS011;5802;52.832;4.758;2024-03-08T13:13:48;2.92;;;2.63;;
11490;SDS011;5802;52.832;4.758;2024-03-08T13:16:15;3.08;;;2.78;;
11490;SDS011;5802;52.832;4.758;2024-03-08T13:18:44;2.95;;;2.70;;
11490;SDS011;5802;52.832;4.758;2024-03-08T13:21:15;3.80;;;2.67;;
11490;SDS011;5802;52.832;4.758;2024-03-08T13:23:44;2.95;;;2.70;;
11490;SDS011;5802;52.832;4.758;2024-03-08T13:26:14;3.03;;;2.65;;
11490;SDS011;5802;52.832;4.758;2024-03-08T13:28:42;3.10;;;2.63;;
11490;SDS011;5802;52.832;4.758;2024-03-08T13:31:09;2.60;;;2.40;;
11490;SDS011;5802;52.832;4.758;2024-03-08T13:33:36;3.38;;;2.72;;
11490;SDS011;5802;52.832;4.758;2024-03-08T13:36:04;3.33;;;3.00;;
11490;SDS011;5802;52.832;4.758;2024-03-08T13:38:40;3.08;;;2.78;;
11490;SDS011;5802;52.832;4.758;2024-03-08T13:41:11;3.22;;;2.80;;
11490;SDS011;5802;52.832;4.758;2024-03-08T13:43:40;3.38;;;2.95;;
11490;SDS011;5802;52.832;4.758;2024-03-08T13:46:06;2.90;;;2.60;;
11490;SDS011;5802;52.832;4.758;2024-03-08T13:48:35;3.13;;;2.83;;
11490;SDS011;5802;52.832;4.758;2024-03-08T13:51:03;2.97;;;2.60;;
11490;SDS011;5802;52.832;4.758;2024-03-08T13:53:31;3.53;;;3.08;;
11490;SDS011;5802;52.832;4.758;2024-03-08T13:55:59;3.15;;;2.78;;
11490;SDS011;5802;52.832;4.758;2024-03-08T13:58:26;3.08;;;2.70;;
11490;SDS011;5802;52.832;4.758;2024-03-08T14:00:53;3.53;;;2.83;;
11490;SDS011;5802;52.832;4.758;2024-03-08T14:03:20;3.42;;;2.83;;
11490;SDS011;5802;52.832;4.758;2024-03-08T14:05:48;3.30;;;2.53;;
11490;SDS011;5802;52.832;4.758;2024-03-08T14:08:15;4.25;;;2.90;;
11490;SDS011;5802;52.832;4.758;2024-03-08T14:10:42;3.08;;;2.78;;
11490;SDS011;5802;52.832;4.758;2024-03-08T14:13:13;3.42;;;2.67;;
11490;SDS011;5802;52.832;4.758;2024-03-08T14:15:41;3.08;;;2.80;;
11490;SDS011;5802;52.832;4.758;2024-03-08T14:18:09;3.08;;;2.78;;
11490;SDS011;5802;52.832;4.758;2024-03-08T14:20:41;3.03;;;2.72;;
11490;SDS011;5802;52.832;4.758;2024-03-08T14:23:08;3.20;;;2.90;;
11490;SDS011;5802;52.832;4.758;2024-03-08T14:25:42;2.90;;;2.65;;
11490;SDS011;5802;52.832;4.758;2024-03-08T14:28:14;3.42;;;2.80;;
11490;SDS011;5802;52.832;4.758;2024-03-08T14:30:47;3.25;;;2.92;;
11490;SDS011;5802;52.832;4.758;2024-03-08T14:33:14;3.75;;;2.92;;
11490;SDS011;5802;52.832;4.758;2024-03-08T14:35:41;3.10;;;2.80;;
11490;SDS011;5802;52.832;4.758;2024-03-08T14:38:09;3.10;;;2.72;;
11490;SDS011;5802;52.832;4.758;2024-03-08T14:40:36;3.83;;;2.70;;
11490;SDS011;5802;52.832;4.758;2024-03-08T14:43:03;3.35;;;2.70;;
11490;SDS011;5802;52.832;4.758;2024-03-08T14:45:32;3.72;;;3.08;;
11490;SDS011;5802;52.832;4.758;2024-03-08T14:47:59;3.40;;;2.75;;
11490;SDS011;5802;52.832;4.758;2024-03-08T14:50:27;3.60;;;3.20;;
11490;SDS011;5802;52.832;4.758;2024-03-08T14:52:54;3.45;;;3.15;;
11490;SDS011;5802;52.832;4.758;2024-03-08T14:55:21;4.05;;;3.45;;
11490;SDS011;5802;52.832;4.758;2024-03-08T14:57:48;3.83;;;3.45;;
11490;SDS011;5802;52.832;4.758;2024-03-08T15:00:16;4.38;;;3.58;;
11490;SDS011;5802;52.832;4.758;2024-03-08T15:02:53;4.45;;;3.50;;
11490;SDS011;5802;52.832;4.758;2024-03-08T15:05:20;4.63;;;3.33;;
11490;SDS011;5802;52.832;4.758;2024-03-08T15:07:51;4.10;;;3.45;;
11490;SDS011;5802;52.832;4.758;2024-03-08T15:10:18;4.15;;;3.75;;
11490;SDS011;5802;52.832;4.758;2024-03-08T15:12:48;3.83;;;3.08;;
11490;SDS011;5802;52.832;4.758;2024-03-08T15:15:15;4.65;;;3.55;;